Time,TemperatureF,DewpointF,PressureIn,WindDirection,WindDirectionDegrees,WindSpeedMPH,WindSpeedGustMPH,Humidity,HourlyPrecipIn,Conditions,Clouds,dailyrainin,SoftwareType,DateUTC
2013-03-14 00:00:00,56.2,19.8,30.11,SSW,209,4.0,6.0,24,0.00,,,0.00,Wunderground v.1.15,2013-03-14 07:00:00,
2013-03-14 00:05:00,56.0,20.6,30.11,SSW,209,5.0,6.0,25,0.00,,,0.00,Wunderground v.1.15,2013-03-14 07:05:00,
2013-03-14 00:15:00,55.7,19.4,30.11,SSW,209,5.0,6.0,24,0.00,,,0.00,Wunderground v.1.15,2013-03-14 07:15:00,
2013-03-14 00:20:00,56.2,18.8,30.11,SSW,208,4.0,5.0,23,0.00,,,0.00,Wunderground v.1.15,2013-03-14 07:20:00,
2013-03-14 00:30:00,55.3,20.0,30.10,SSW,208,5.0,6.0,25,0.00,,,0.00,Wunderground v.1.15,2013-03-14 07:30:00,
2013-03-14 00:35:00,56.2,19.8,30.11,SSW,208,6.0,6.0,24,0.00,,,0.00,Wunderground v.1.15,2013-03-14 07:35:00,
2013-03-14 00:40:00,57.0,20.5,30.10,SSW,209,6.0,6.0,24,0.00,,,0.00,Wunderground v.1.15,2013-03-14 07:40:00,
2013-03-14 00:45:00,56.6,20.2,30.10,SSW,209,6.0,6.0,24,0.00,,,0.00,Wunderground v.1.15,2013-03-14 07:45:00,
2013-03-14 00:50:00,56.0,19.7,30.10,SSW,209,5.0,5.0,24,0.00,,,0.00,Wunderground v.1.15,2013-03-14 07:50:00,
2013-03-14 00:55:00,55.9,18.6,30.10,SSW,207,5.0,5.0,23,0.00,,,0.00,Wunderground v.1.15,2013-03-14 07:55:00,
2013-03-14 01:05:00,59.2,16.9,30.10,SSW,192,4.0,5.0,19,0.00,,,0.00,Wunderground v.1.15,2013-03-14 08:05:00,
2013-03-14 01:15:00,61.2,14.6,30.10,SSW,194,4.0,4.0,16,0.00,,,0.00,Wunderground v.1.15,2013-03-14 08:15:00,
2013-03-14 01:20:00,61.8,13.6,30.10,SSW,192,3.0,3.0,15,0.00,,,0.00,Wunderground v.1.15,2013-03-14 08:20:00,
2013-03-14 01:25:00,61.6,14.9,30.10,South,186,3.0,3.0,16,0.00,,,0.00,Wunderground v.1.15,2013-03-14 08:25:00,
2013-03-14 01:35:00,61.0,15.8,30.10,South,186,5.0,5.0,17,0.00,,,0.00,Wunderground v.1.15,2013-03-14 08:35:00,
2013-03-14 01:45:00,61.5,13.4,30.10,SSW,195,5.0,5.0,15,0.00,,,0.00,Wunderground v.1.15,2013-03-14 08:45:00,
2013-03-14 01:50:00,60.7,15.6,30.10,SSW,197,5.0,7.0,17,0.00,,,0.00,Wunderground v.1.15,2013-03-14 08:50:00,
2013-03-14 01:55:00,60.9,14.3,30.09,SSW,198,5.0,5.0,16,0.00,,,0.00,Wunderground v.1.15,2013-03-14 08:55:00,
2013-03-14 02:00:00,61.3,13.2,30.09,SSW,197,5.0,6.0,15,0.00,,,0.00,Wunderground v.1.15,2013-03-14 09:00:00,
2013-03-14 02:05:00,60.9,14.3,30.09,SSW,192,4.0,6.0,16,0.00,,,0.00,Wunderground v.1.15,2013-03-14 09:05:00,
2013-03-14 02:15:00,59.9,14.9,30.09,South,190,4.0,6.0,17,0.00,,,0.00,Wunderground v.1.15,2013-03-14 09:15:00,
2013-03-14 02:20:00,59.8,14.8,30.09,SSW,195,4.0,7.0,17,0.00,,,0.00,Wunderground v.1.15,2013-03-14 09:20:00,
2013-03-14 02:25:00,60.1,13.7,30.09,SSW,194,5.0,7.0,16,0.00,,,0.00,Wunderground v.1.15,2013-03-14 09:25:00,
2013-03-14 02:30:00,59.6,14.7,30.09,South,191,4.0,5.0,17,0.00,,,0.00,Wunderground v.1.15,2013-03-14 09:30:00,
2013-03-14 02:35:00,59.8,13.4,30.09,SSW,196,4.0,5.0,16,0.00,,,0.00,Wunderground v.1.15,2013-03-14 09:35:00,
2013-03-14 02:40:00,60.4,13.9,30.09,SSW,197,5.0,5.0,16,0.00,,,0.00,Wunderground v.1.15,2013-03-14 09:40:00,
2013-03-14 02:45:00,59.9,14.9,30.09,South,184,4.0,6.0,17,0.00,,,0.00,Wunderground v.1.15,2013-03-14 09:45:00,
2013-03-14 02:50:00,59.9,13.5,30.09,South,187,5.0,5.0,16,0.00,,,0.00,Wunderground v.1.15,2013-03-14 09:50:00,
2013-03-14 02:55:00,60.1,13.7,30.09,South,189,5.0,5.0,16,0.00,,,0.00,Wunderground v.1.15,2013-03-14 09:55:00,
2013-03-14 03:00:00,59.5,14.6,30.09,SSW,195,5.0,6.0,17,0.00,,,0.00,Wunderground v.1.15,2013-03-14 10:00:00,
2013-03-14 03:05:00,59.5,13.2,30.09,SSW,202,5.0,6.0,16,0.00,,,0.00,Wunderground v.1.15,2013-03-14 10:05:00,
2013-03-14 03:15:00,60.1,13.7,30.08,SSW,201,6.0,6.0,16,0.00,,,0.00,Wunderground v.1.15,2013-03-14 10:15:00,
2013-03-14 03:20:00,58.9,14.1,30.08,SSW,202,6.0,6.0,17,0.00,,,0.00,Wunderground v.1.15,2013-03-14 10:20:00,
2013-03-14 03:25:00,57.8,15.7,30.08,SSW,202,5.0,6.0,19,0.00,,,0.00,Wunderground v.1.15,2013-03-14 10:25:00,
2013-03-14 03:30:00,57.5,15.5,30.08,SSW,203,4.0,6.0,19,0.00,,,0.00,Wunderground v.1.15,2013-03-14 10:30:00,
2013-03-14 03:40:00,58.3,14.9,30.08,SSW,211,5.0,5.0,18,0.00,,,0.00,Wunderground v.1.15,2013-03-14 10:40:00,
2013-03-14 03:45:00,58.0,14.7,30.08,SSW,211,4.0,5.0,18,0.00,,,0.00,Wunderground v.1.15,2013-03-14 10:45:00,
2013-03-14 03:50:00,57.6,14.3,30.08,SSW,211,2.0,2.0,18,0.00,,,0.00,Wunderground v.1.15,2013-03-14 10:50:00,
2013-03-14 03:55:00,56.6,17.1,30.08,SSW,211,3.0,5.0,21,0.00,,,0.00,Wunderground v.1.15,2013-03-14 10:55:00,
2013-03-14 04:00:00,56.5,15.8,30.08,SSW,211,4.0,6.0,20,0.00,,,0.00,Wunderground v.1.15,2013-03-14 11:00:00,
2013-03-14 04:05:00,57.3,14.1,30.08,SSW,211,4.0,6.0,18,0.00,,,0.00,Wunderground v.1.15,2013-03-14 11:05:00,
2013-03-14 04:15:00,57.0,15.1,30.08,SSW,211,4.0,4.0,19,0.00,,,0.00,Wunderground v.1.15,2013-03-14 11:15:00,
2013-03-14 04:20:00,56.2,17.8,30.08,SSW,211,3.0,3.0,22,0.00,,,0.00,Wunderground v.1.15,2013-03-14 11:20:00,
2013-03-14 04:25:00,55.6,16.2,30.08,SSW,211,4.0,5.0,21,0.00,,,0.00,Wunderground v.1.15,2013-03-14 11:25:00,
2013-03-14 04:30:00,55.6,16.2,30.08,SSW,211,5.0,5.0,21,0.00,,,0.00,Wunderground v.1.15,2013-03-14 11:30:00,
2013-03-14 08:41:00,68.6,11.9,30.13,South,185,2.0,6.0,11,0.00,,,0.00,Wunderground v.1.15,2013-03-14 15:41:00,
2013-03-14 08:50:00,69.3,14.4,30.14,South,184,2.0,6.0,12,0.00,,,0.00,Wunderground v.1.15,2013-03-14 15:50:00,
2013-03-14 08:55:00,69.3,12.5,30.14,South,184,2.0,2.0,11,0.00,,,0.00,Wunderground v.1.15,2013-03-14 15:55:00,
2013-03-14 09:00:00,69.4,12.5,30.14,South,184,2.0,6.0,11,0.00,,,0.00,Wunderground v.1.15,2013-03-14 16:00:00,
2013-03-14 09:05:00,69.8,12.9,30.14,South,183,2.0,6.0,11,0.00,,,0.00,Wunderground v.1.15,2013-03-14 16:05:00,
2013-03-14 09:15:00,70.1,15.1,30.14,South,175,2.0,2.0,12,0.00,,,0.00,Wunderground v.1.15,2013-03-14 16:15:00,
2013-03-14 09:20:00,70.8,13.6,30.14,South,175,2.0,2.0,11,0.00,,,0.00,Wunderground v.1.15,2013-03-14 16:20:00,
2013-03-14 09:25:00,70.8,13.6,30.14,SSE,153,2.0,2.0,11,0.00,,,0.00,Wunderground v.1.15,2013-03-14 16:25:00,
2013-03-14 09:30:00,70.9,13.7,30.15,SSE,153,3.0,3.0,11,0.00,,,0.00,Wunderground v.1.15,2013-03-14 16:30:00,
2013-03-14 09:35:00,71.1,13.9,30.15,SSE,153,2.0,5.0,11,0.00,,,0.00,Wunderground v.1.15,2013-03-14 16:35:00,
2013-03-14 09:40:00,71.1,13.9,30.14,SSE,153,2.0,2.0,11,0.00,,,0.00,Wunderground v.1.15,2013-03-14 16:40:00,
2013-03-14 09:45:00,71.6,14.2,30.15,SSE,152,3.0,4.0,11,0.00,,,0.00,Wunderground v.1.15,2013-03-14 16:45:00,
2013-03-14 09:55:00,72.1,18.5,30.15,SE,126,3.0,4.0,13,0.00,,,0.00,Wunderground v.1.15,2013-03-14 16:55:00,
2013-03-14 10:00:00,72.7,17.1,30.15,SE,126,3.0,5.0,12,0.00,,,0.00,Wunderground v.1.15,2013-03-14 17:00:00,
2013-03-14 10:05:00,72.0,14.6,30.14,East,97,4.0,5.0,11,0.00,,,0.00,Wunderground v.1.15,2013-03-14 17:05:00,
2013-03-14 10:15:00,72.3,16.8,30.14,East,97,4.0,4.0,12,0.00,,,0.00,Wunderground v.1.15,2013-03-14 17:15:00,
2013-03-14 10:20:00,73.0,15.3,30.14,East,97,3.0,4.0,11,0.00,,,0.00,Wunderground v.1.15,2013-03-14 17:20:00,
2013-03-14 10:30:00,73.9,16.0,30.14,East,96,3.0,3.0,11,0.00,,,0.00,Wunderground v.1.15,2013-03-14 17:30:00,
2013-03-14 10:35:00,73.9,11.4,30.14,East,96,2.0,3.0,9,0.00,,,0.00,Wunderground v.1.15,2013-03-14 17:35:00,
2013-03-14 10:40:00,74.4,14.2,30.14,East,96,2.0,5.0,10,0.00,,,0.00,Wunderground v.1.15,2013-03-14 17:40:00,
2013-03-14 10:45:00,74.6,12.0,30.14,East,96,3.0,5.0,9,0.00,,,0.00,Wunderground v.1.15,2013-03-14 17:45:00,
2013-03-14 10:50:00,74.6,14.4,30.14,NE,46,4.0,4.0,10,0.00,,,0.00,Wunderground v.1.15,2013-03-14 17:50:00,
2013-03-14 11:00:00,74.0,13.9,30.14,NNW,331,4.0,5.0,10,0.00,,,0.00,Wunderground v.1.15,2013-03-14 18:00:00,
2013-03-14 11:05:00,74.2,14.1,30.14,NNW,338,4.0,5.0,10,0.00,,,0.00,Wunderground v.1.15,2013-03-14 18:05:00,
2013-03-14 11:15:00,74.2,11.7,30.13,NNE,24,4.0,5.0,9,0.00,,,0.00,Wunderground v.1.15,2013-03-14 18:15:00,
2013-03-14 11:20:00,74.0,11.5,30.13,NE,42,4.0,4.0,9,0.00,,,0.00,Wunderground v.1.15,2013-03-14 18:20:00,
2013-03-14 11:25:00,74.6,12.0,30.13,NE,44,3.0,4.0,9,0.00,,,0.00,Wunderground v.1.15,2013-03-14 18:25:00,
2013-03-14 11:35:00,75.4,12.6,30.13,NNE,15,3.0,4.0,9,0.00,,,0.00,Wunderground v.1.15,2013-03-14 18:35:00,
2013-03-14 11:40:00,75.4,12.6,30.13,NE,41,4.0,5.0,9,0.00,,,0.00,Wunderground v.1.15,2013-03-14 18:40:00,
2013-03-14 11:45:00,74.9,12.2,30.12,East,83,5.0,5.0,9,0.00,,,0.00,Wunderground v.1.15,2013-03-14 18:45:00,
2013-03-14 11:50:00,75.4,15.0,30.12,East,83,3.0,3.0,10,0.00,,,0.00,Wunderground v.1.15,2013-03-14 18:50:00,
2013-03-14 11:55:00,75.8,15.3,30.12,ENE,74,2.0,4.0,10,0.00,,,0.00,Wunderground v.1.15,2013-03-14 18:55:00,
2013-03-14 12:05:00,75.1,9.7,30.11,East,90,5.0,8.0,8,0.00,,,0.00,Wunderground v.1.15,2013-03-14 19:05:00,
2013-03-14 12:15:00,75.8,12.9,30.11,ENE,69,4.0,5.0,9,0.00,,,0.00,Wunderground v.1.15,2013-03-14 19:15:00,
2013-03-14 12:20:00,76.5,13.4,30.11,ENE,69,4.0,5.0,9,0.00,,,0.00,Wunderground v.1.15,2013-03-14 19:20:00,
2013-03-14 12:25:00,76.7,13.6,30.10,ENE,67,3.0,5.0,9,0.00,,,0.00,Wunderground v.1.15,2013-03-14 19:25:00,
2013-03-14 12:30:00,76.8,13.6,30.10,ENE,66,4.0,4.0,9,0.00,,,0.00,Wunderground v.1.15,2013-03-14 19:30:00,
2013-03-14 12:40:00,76.3,13.3,30.09,ENE,73,5.0,6.0,9,0.00,,,0.00,Wunderground v.1.15,2013-03-14 19:40:00,
2013-03-14 12:45:00,76.3,10.6,30.09,East,82,5.0,6.0,8,0.00,,,0.00,Wunderground v.1.15,2013-03-14 19:45:00,
2013-03-14 12:50:00,76.8,13.6,30.09,East,82,3.0,3.0,9,0.00,,,0.00,Wunderground v.1.15,2013-03-14 19:50:00,
2013-03-14 12:55:00,77.2,11.3,30.08,ENE,65,3.0,3.0,8,0.00,,,0.00,Wunderground v.1.15,2013-03-14 19:55:00,
2013-03-14 13:00:00,77.2,11.3,30.08,ENE,58,4.0,4.0,8,0.00,,,0.00,Wunderground v.1.15,2013-03-14 20:00:00,
2013-03-14 13:05:00,77.2,13.9,30.08,SSE,165,3.0,6.0,9,0.00,,,0.00,Wunderground v.1.15,2013-03-14 20:05:00,
2013-03-14 13:15:00,78.1,8.9,30.07,South,191,2.0,4.0,7,0.00,,,0.00,Wunderground v.1.15,2013-03-14 20:15:00,
2013-03-14 13:20:00,78.3,9.1,30.07,South,186,2.0,3.0,7,0.00,,,0.00,Wunderground v.1.15,2013-03-14 20:20:00,
2013-03-14 13:25:00,78.3,12.1,30.07,South,169,2.0,3.0,8,0.00,,,0.00,Wunderground v.1.15,2013-03-14 20:25:00,
2013-03-14 13:30:00,77.7,8.6,30.07,East,101,4.0,5.0,7,0.00,,,0.00,Wunderground v.1.15,2013-03-14 20:30:00,
2013-03-14 13:35:00,77.4,11.4,30.07,ESE,102,5.0,5.0,8,0.00,,,0.00,Wunderground v.1.15,2013-03-14 20:35:00,
2013-03-14 13:45:00,77.6,8.6,30.06,East,99,5.0,5.0,7,0.00,,,0.00,Wunderground v.1.15,2013-03-14 20:45:00,
2013-03-14 13:50:00,78.1,11.9,30.06,ENE,59,3.0,11.0,8,0.00,,,0.00,Wunderground v.1.15,2013-03-14 20:50:00,
2013-03-14 13:55:00,78.1,11.9,30.06,North,9,4.0,11.0,8,0.00,,,0.00,Wunderground v.1.15,2013-03-14 20:55:00,
2013-03-14 14:00:00,78.3,9.1,30.06,North,9,4.0,4.0,7,0.00,,,0.00,Wunderground v.1.15,2013-03-14 21:00:00,
2013-03-14 14:05:00,78.1,11.9,30.05,ESE,111,3.0,5.0,8,0.00,,,0.00,Wunderground v.1.15,2013-03-14 21:05:00,
2013-03-14 14:15:00,77.9,8.8,30.05,East,101,4.0,4.0,7,0.00,,,0.00,Wunderground v.1.15,2013-03-14 21:15:00,
2013-03-14 14:20:00,77.9,8.8,30.04,ESE,122,4.0,7.0,7,0.00,,,0.00,Wunderground v.1.15,2013-03-14 21:20:00,
2013-03-14 14:25:00,78.5,9.2,30.05,NE,55,5.0,7.0,7,0.00,,,0.00,Wunderground v.1.15,2013-03-14 21:25:00,
2013-03-14 14:30:00,78.6,9.3,30.04,East,101,5.0,12.0,7,0.00,,,0.00,Wunderground v.1.15,2013-03-14 21:30:00,
2013-03-14 14:35:00,78.1,8.9,30.04,ESE,108,6.0,12.0,7,0.00,,,0.00,Wunderground v.1.15,2013-03-14 21:35:00,
2013-03-14 14:40:00,78.8,9.5,30.04,ESE,107,7.0,7.0,7,0.00,,,0.00,Wunderground v.1.15,2013-03-14 21:40:00,
2013-03-14 14:50:00,79.2,9.8,30.04,East,84,4.0,6.0,7,0.00,,,0.00,Wunderground v.1.15,2013-03-14 21:50:00,
2013-03-14 14:55:00,79.0,9.6,30.04,East,84,3.0,6.0,7,0.00,,,0.00,Wunderground v.1.15,2013-03-14 21:55:00,
2013-03-14 15:00:00,79.4,9.9,30.04,East,88,3.0,3.0,7,0.00,,,0.00,Wunderground v.1.15,2013-03-14 22:00:00,
2013-03-14 15:05:00,79.4,9.9,30.03,ENE,61,4.0,4.0,7,0.00,,,0.00,Wunderground v.1.15,2013-03-14 22:05:00,
2013-03-14 15:15:00,78.8,9.5,30.03,SE,131,5.0,5.0,7,0.00,,,0.00,Wunderground v.1.15,2013-03-14 22:15:00,
2013-03-14 15:20:00,79.2,9.8,30.03,SE,130,4.0,4.0,7,0.00,,,0.00,Wunderground v.1.15,2013-03-14 22:20:00,
2013-03-14 15:25:00,78.6,9.3,30.03,ESE,111,4.0,4.0,7,0.00,,,0.00,Wunderground v.1.15,2013-03-14 22:25:00,
2013-03-14 15:30:00,78.5,9.2,30.03,ESE,111,4.0,4.0,7,0.00,,,0.00,Wunderground v.1.15,2013-03-14 22:30:00,
2013-03-14 15:35:00,78.8,9.5,30.03,East,92,4.0,6.0,7,0.00,,,0.00,Wunderground v.1.15,2013-03-14 22:35:00,
2013-03-14 15:45:00,78.8,9.5,30.03,ENE,71,4.0,4.0,7,0.00,,,0.00,Wunderground v.1.15,2013-03-14 22:45:00,
2013-03-14 15:50:00,79.4,9.9,30.02,ENE,71,2.0,3.0,7,0.00,,,0.00,Wunderground v.1.15,2013-03-14 22:50:00,
2013-03-14 15:55:00,79.9,10.3,30.02,ENE,71,2.0,3.0,7,0.00,,,0.00,Wunderground v.1.15,2013-03-14 22:55:00,
2013-03-14 16:00:00,80.1,10.4,30.02,East,97,3.0,5.0,7,0.00,,,0.00,Wunderground v.1.15,2013-03-14 23:00:00,
2013-03-14 16:05:00,79.2,9.8,30.02,ENE,71,4.0,6.0,7,0.00,,,0.00,Wunderground v.1.15,2013-03-14 23:05:00,
2013-03-14 16:15:00,79.4,6.5,30.02,ESE,105,4.0,8.0,6,0.00,,,0.00,Wunderground v.1.15,2013-03-14 23:15:00,
2013-03-14 16:25:00,78.3,9.1,30.02,ESE,117,5.0,5.0,7,0.00,,,0.00,Wunderground v.1.15,2013-03-14 23:25:00,
2013-03-14 16:30:00,78.6,9.3,30.02,ESE,117,3.0,3.0,7,0.00,,,0.00,Wunderground v.1.15,2013-03-14 23:30:00,
2013-03-14 16:40:00,80.1,7.0,30.01,ESE,117,1.0,5.0,6,0.00,,,0.00,Wunderground v.1.15,2013-03-14 23:40:00,
2013-03-14 16:45:00,79.8,6.8,30.01,ESE,117,1.0,5.0,6,0.00,,,0.00,Wunderground v.1.15,2013-03-14 23:45:00,
2013-03-14 16:50:00,79.6,6.6,30.01,ESE,117,2.0,2.0,6,0.00,,,0.00,Wunderground v.1.15,2013-03-14 23:50:00,
2013-03-14 17:00:00,80.1,10.4,30.01,ESE,117,1.0,2.0,7,0.00,,,0.00,Wunderground v.1.15,2013-03-15 00:00:00,
2013-03-14 17:05:00,79.2,6.3,30.01,ESE,117,2.0,2.0,6,0.00,,,0.00,Wunderground v.1.15,2013-03-15 00:05:00,
2013-03-14 17:15:00,78.3,5.7,30.01,ESE,117,4.0,4.0,6,0.00,,,0.00,Wunderground v.1.15,2013-03-15 00:15:00,
2013-03-14 17:20:00,78.1,5.5,30.01,ESE,117,4.0,4.0,6,0.00,,,0.00,Wunderground v.1.15,2013-03-15 00:20:00,
2013-03-14 17:25:00,78.1,8.9,30.01,ESE,117,2.0,4.0,7,0.00,,,0.00,Wunderground v.1.15,2013-03-15 00:25:00,
2013-03-14 17:30:00,78.6,9.3,30.01,ESE,117,1.0,1.0,7,0.00,,,0.00,Wunderground v.1.15,2013-03-15 00:30:00,
2013-03-14 17:35:00,77.6,16.7,30.01,SSE,167,2.0,8.0,10,0.00,,,0.00,Wunderground v.1.15,2013-03-15 00:35:00,
2013-03-14 17:45:00,71.5,18.0,30.01,SSE,168,6.0,6.0,13,0.00,,,0.00,Wunderground v.1.15,2013-03-15 00:45:00,
2013-03-14 17:50:00,70.4,17.2,30.01,SSE,168,6.0,7.0,13,0.00,,,0.00,Wunderground v.1.15,2013-03-15 00:50:00,
2013-03-14 17:55:00,69.6,18.2,30.01,SSE,168,6.0,8.0,14,0.00,,,0.00,Wunderground v.1.15,2013-03-15 00:55:00,
2013-03-14 18:00:00,68.9,19.3,30.01,SSE,168,6.0,6.0,15,0.00,,,0.00,Wunderground v.1.15,2013-03-15 01:00:00,
2013-03-14 18:05:00,68.3,17.2,30.01,SSE,168,6.0,8.0,14,0.00,,,0.00,Wunderground v.1.15,2013-03-15 01:05:00,
2013-03-14 18:15:00,67.6,18.3,30.01,South,169,6.0,6.0,15,0.00,,,0.00,Wunderground v.1.15,2013-03-15 01:15:00,
2013-03-14 18:20:00,67.8,16.8,30.01,South,184,6.0,6.0,14,0.00,,,0.00,Wunderground v.1.15,2013-03-15 01:20:00,
2013-03-14 18:25:00,67.8,16.8,30.01,South,186,6.0,6.0,14,0.00,,,0.00,Wunderground v.1.15,2013-03-15 01:25:00,
2013-03-14 18:30:00,67.3,16.4,30.01,South,186,6.0,6.0,14,0.00,,,0.00,Wunderground v.1.15,2013-03-15 01:30:00,
2013-03-14 18:40:00,65.6,16.6,30.01,South,186,6.0,6.0,15,0.00,,,0.00,Wunderground v.1.15,2013-03-15 01:40:00,
2013-03-14 18:45:00,65.5,16.6,30.01,South,186,6.0,7.0,15,0.00,,,0.00,Wunderground v.1.15,2013-03-15 01:45:00,
2013-03-14 18:50:00,65.6,16.6,30.02,South,186,5.0,5.0,15,0.00,,,0.00,Wunderground v.1.15,2013-03-15 01:50:00,
2013-03-14 18:55:00,65.2,16.3,30.02,South,186,6.0,6.0,15,0.00,,,0.00,Wunderground v.1.15,2013-03-15 01:55:00,
2013-03-14 19:00:00,64.5,15.8,30.02,South,186,6.0,6.0,15,0.00,,,0.00,Wunderground v.1.15,2013-03-15 02:00:00,
2013-03-14 19:05:00,64.5,15.8,30.02,South,186,6.0,6.0,15,0.00,,,0.00,Wunderground v.1.15,2013-03-15 02:05:00,
2013-03-14 19:15:00,64.7,14.3,30.02,South,186,6.0,6.0,14,0.00,,,0.00,Wunderground v.1.15,2013-03-15 02:15:00,
2013-03-14 19:20:00,65.0,14.6,30.02,South,187,6.0,8.0,14,0.00,,,0.00,Wunderground v.1.15,2013-03-15 02:20:00,
2013-03-14 19:25:00,65.3,14.8,30.02,South,187,6.0,8.0,14,0.00,,,0.00,Wunderground v.1.15,2013-03-15 02:25:00,
2013-03-14 19:30:00,65.3,14.8,30.02,South,187,6.0,6.0,14,0.00,,,0.00,Wunderground v.1.15,2013-03-15 02:30:00,
2013-03-14 19:35:00,65.3,13.1,30.02,South,188,6.0,7.0,13,0.00,,,0.00,Wunderground v.1.15,2013-03-15 02:35:00,
2013-03-14 19:45:00,65.3,14.8,30.02,South,190,6.0,6.0,14,0.00,,,0.00,Wunderground v.1.15,2013-03-15 02:45:00,
2013-03-14 19:50:00,65.0,14.6,30.02,South,190,6.0,6.0,14,0.00,,,0.00,Wunderground v.1.15,2013-03-15 02:50:00,
2013-03-14 19:55:00,64.5,15.8,30.03,South,190,6.0,6.0,15,0.00,,,0.00,Wunderground v.1.15,2013-03-15 02:55:00,
2013-03-14 20:00:00,64.0,15.4,30.02,South,190,6.0,6.0,15,0.00,,,0.00,Wunderground v.1.15,2013-03-15 03:00:00,
2013-03-14 20:05:00,63.5,15.0,30.03,South,190,5.0,7.0,15,0.00,,,0.00,Wunderground v.1.15,2013-03-15 03:05:00,
2013-03-14 20:15:00,63.4,14.9,30.03,South,190,6.0,6.0,15,0.00,,,0.00,Wunderground v.1.15,2013-03-15 03:15:00,
2013-03-14 20:20:00,63.4,14.9,30.03,South,190,5.0,5.0,15,0.00,,,0.00,Wunderground v.1.15,2013-03-15 03:20:00,
2013-03-14 20:25:00,62.7,14.3,30.03,South,190,5.0,5.0,15,0.00,,,0.00,Wunderground v.1.15,2013-03-15 03:25:00,
2013-03-14 20:30:00,62.1,15.3,30.03,South,190,5.0,5.0,16,0.00,,,0.00,Wunderground v.1.15,2013-03-15 03:30:00,
2013-03-14 20:35:00,62.4,14.1,30.03,South,190,6.0,6.0,15,0.00,,,0.00,Wunderground v.1.15,2013-03-15 03:35:00,
2013-03-14 20:40:00,62.4,15.6,30.03,South,190,5.0,5.0,16,0.00,,,0.00,Wunderground v.1.15,2013-03-15 03:40:00,
2013-03-14 20:50:00,61.8,16.5,30.03,South,190,5.0,5.0,17,0.00,,,0.00,Wunderground v.1.15,2013-03-15 03:50:00,
2013-03-14 20:55:00,62.3,12.4,30.03,South,189,5.0,5.0,14,0.00,,,0.00,Wunderground v.1.15,2013-03-15 03:55:00,
2013-03-14 21:00:00,64.3,14.0,30.03,South,190,5.0,5.0,14,0.00,,,0.00,Wunderground v.1.15,2013-03-15 04:00:00,
2013-03-14 21:05:00,64.8,12.7,30.03,South,191,5.0,7.0,13,0.00,,,0.00,Wunderground v.1.15,2013-03-15 04:05:00,
2013-03-14 21:10:00,63.7,15.1,30.03,South,191,5.0,5.0,15,0.00,,,0.00,Wunderground v.1.15,2013-03-15 04:10:00,
2013-03-14 21:20:00,62.1,15.3,30.03,South,191,4.0,4.0,16,0.00,,,0.00,Wunderground v.1.15,2013-03-15 04:20:00,
2013-03-14 21:25:00,61.6,14.9,30.04,South,191,4.0,4.0,16,0.00,,,0.00,Wunderground v.1.15,2013-03-15 04:25:00,
2013-03-14 21:30:00,61.3,14.7,30.04,South,191,5.0,5.0,16,0.00,,,0.00,Wunderground v.1.15,2013-03-15 04:30:00,
2013-03-14 21:35:00,61.0,14.4,30.04,South,191,4.0,5.0,16,0.00,,,0.00,Wunderground v.1.15,2013-03-15 04:35:00,
2013-03-14 21:40:00,62.0,12.2,30.04,South,191,4.0,4.0,14,0.00,,,0.00,Wunderground v.1.15,2013-03-15 04:40:00,
2013-03-14 21:45:00,64.2,13.9,30.04,SSW,192,5.0,5.0,14,0.00,,,0.00,Wunderground v.1.15,2013-03-15 04:45:00,
2013-03-14 21:50:00,63.7,13.5,30.04,SSW,192,5.0,5.0,14,0.00,,,0.00,Wunderground v.1.15,2013-03-15 04:50:00,
2013-03-14 21:55:00,62.9,12.9,30.04,SSW,192,4.0,5.0,14,0.00,,,0.00,Wunderground v.1.15,2013-03-15 04:55:00,
2013-03-14 22:00:00,64.3,12.3,30.04,South,190,4.0,4.0,13,0.00,,,0.00,Wunderground v.1.15,2013-03-15 05:00:00,
2013-03-14 22:05:00,64.0,10.3,30.04,South,190,4.0,4.0,12,0.00,,,0.00,Wunderground v.1.15,2013-03-15 05:05:00,
2013-03-14 22:15:00,65.0,9.1,30.05,South,189,3.0,4.0,11,0.00,,,0.00,Wunderground v.1.15,2013-03-15 05:15:00,
2013-03-14 22:25:00,65.6,9.6,30.05,South,189,3.0,4.0,11,0.00,,,0.00,Wunderground v.1.15,2013-03-15 05:25:00,
2013-03-14 22:30:00,65.3,11.3,30.05,South,188,4.0,4.0,12,0.00,,,0.00,Wunderground v.1.15,2013-03-15 05:30:00,
2013-03-14 22:35:00,65.2,11.2,30.05,South,189,4.0,4.0,12,0.00,,,0.00,Wunderground v.1.15,2013-03-15 05:35:00,
2013-03-14 22:40:00,64.8,10.9,30.05,South,189,4.0,4.0,12,0.00,,,0.00,Wunderground v.1.15,2013-03-15 05:40:00,
2013-03-14 22:45:00,62.7,14.3,30.05,South,189,4.0,5.0,15,0.00,,,0.00,Wunderground v.1.15,2013-03-15 05:45:00,
2013-03-14 22:50:00,61.6,11.9,30.05,South,189,4.0,5.0,14,0.00,,,0.00,Wunderground v.1.15,2013-03-15 05:50:00,
2013-03-14 23:00:00,63.5,9.9,30.05,South,187,4.0,4.0,12,0.00,,,0.00,Wunderground v.1.15,2013-03-15 06:00:00,
2013-03-14 23:05:00,64.0,10.3,30.04,South,184,3.0,6.0,12,0.00,,,0.00,Wunderground v.1.15,2013-03-15 06:05:00,
2013-03-14 23:15:00,64.7,10.8,30.04,South,186,3.0,4.0,12,0.00,,,0.00,Wunderground v.1.15,2013-03-15 06:15:00,
2013-03-14 23:20:00,64.5,10.7,30.04,South,190,4.0,5.0,12,0.00,,,0.00,Wunderground v.1.15,2013-03-15 06:20:00,
2013-03-14 23:30:00,64.5,10.7,30.04,SSW,201,5.0,5.0,12,0.00,,,0.00,Wunderground v.1.15,2013-03-15 06:30:00,
2013-03-14 23:35:00,65.0,9.1,30.04,SSW,209,6.0,6.0,11,0.00,,,0.00,Wunderground v.1.15,2013-03-15 06:35:00,
2013-03-14 23:40:00,64.7,10.8,30.04,SSW,207,6.0,6.0,12,0.00,,,0.00,Wunderground v.1.15,2013-03-15 06:40:00,